sensor_id;sensor_type;location;lat;lon;timestamp;temperature;humidity
68276;DHT22;55106;51.438;-0.098;2022-07-06T00:01:27;15.82;64.93
68276;DHT22;55106;51.438;-0.098;2022-07-06T00:03:52;15.81;65.18
68276;DHT22;55106;51.438;-0.098;2022-07-06T00:06:17;15.67;65.33
68276;DHT22;55106;51.438;-0.098;2022-07-06T00:08:43;15.65;65.57
68276;DHT22;55106;51.438;-0.098;2022-07-06T00:11:09;15.56;65.67
68276;DHT22;55106;51.438;-0.098;2022-07-06T00:13:35;15.56;66.07
68276;DHT22;55106;51.438;-0.098;2022-07-06T00:16:01;15.48;66.61
68276;DHT22;55106;51.438;-0.098;2022-07-06T00:18:26;15.36;66.70
68276;DHT22;55106;51.438;-0.098;2022-07-06T00:20:51;15.34;66.74
68276;DHT22;55106;51.438;-0.098;2022-07-06T00:23:17;15.25;67.48
68276;DHT22;55106;51.438;-0.098;2022-07-06T00:25:43;15.27;66.81
68276;DHT22;55106;51.438;-0.098;2022-07-06T00:28:09;15.18;67.44
68276;DHT22;55106;51.438;-0.098;2022-07-06T00:30:34;15.08;67.78
68276;DHT22;55106;51.438;-0.098;2022-07-06T00:33:00;15.03;68.36
68276;DHT22;55106;51.438;-0.098;2022-07-06T00:35:25;14.90;68.43
68276;DHT22;55106;51.438;-0.098;2022-07-06T00:37:51;14.83;69.29
68276;DHT22;55106;51.438;-0.098;2022-07-06T00:40:17;14.84;68.90
68276;DHT22;55106;51.438;-0.098;2022-07-06T00:42:45;14.80;69.05
68276;DHT22;55106;51.438;-0.098;2022-07-06T00:45:11;14.77;69.00
68276;DHT22;55106;51.438;-0.098;2022-07-06T00:47:37;14.70;68.91
68276;DHT22;55106;51.438;-0.098;2022-07-06T00:50:04;14.70;69.10
68276;DHT22;55106;51.438;-0.098;2022-07-06T00:52:39;14.70;69.41
68276;DHT22;55106;51.438;-0.098;2022-07-06T00:55:04;14.66;69.39
68276;DHT22;55106;51.438;-0.098;2022-07-06T00:57:30;14.62;69.94
68276;DHT22;55106;51.438;-0.098;2022-07-06T00:59:56;14.53;70.17
68276;DHT22;55106;51.438;-0.098;2022-07-06T01:02:22;14.50;70.38
68276;DHT22;55106;51.438;-0.098;2022-07-06T01:04:47;14.52;69.95
68276;DHT22;55106;51.438;-0.098;2022-07-06T01:07:13;14.50;69.74
68276;DHT22;55106;51.438;-0.098;2022-07-06T01:09:39;14.52;69.97
68276;DHT22;55106;51.438;-0.098;2022-07-06T01:12:04;14.52;70.28
68276;DHT22;55106;51.438;-0.098;2022-07-06T01:14:30;14.40;70.30
68276;DHT22;55106;51.438;-0.098;2022-07-06T01:16:57;14.35;70.82
68276;DHT22;55106;51.438;-0.098;2022-07-06T01:19:22;14.24;71.76
68276;DHT22;55106;51.438;-0.098;2022-07-06T01:21:48;14.21;71.31
68276;DHT22;55106;51.438;-0.098;2022-07-06T01:24:13;14.22;70.95
68276;DHT22;55106;51.438;-0.098;2022-07-06T01:26:39;14.15;71.62
68276;DHT22;55106;51.438;-0.098;2022-07-06T01:29:04;14.14;72.03
68276;DHT22;55106;51.438;-0.098;2022-07-06T01:31:30;14.04;71.57
68276;DHT22;55106;51.438;-0.098;2022-07-06T01:33:56;13.95;72.51
68276;DHT22;55106;51.438;-0.098;2022-07-06T01:36:22;13.88;72.64
68276;DHT22;55106;51.438;-0.098;2022-07-06T01:38:52;13.81;72.93
68276;DHT22;55106;51.438;-0.098;2022-07-06T01:41:19;13.73;73.03
68276;DHT22;55106;51.438;-0.098;2022-07-06T01:43:45;13.67;72.90
68276;DHT22;55106;51.438;-0.098;2022-07-06T01:46:12;13.59;73.32
68276;DHT22;55106;51.438;-0.098;2022-07-06T01:48:37;13.60;73.66
68276;DHT22;55106;51.438;-0.098;2022-07-06T01:51:04;13.56;73.85
68276;DHT22;55106;51.438;-0.098;2022-07-06T01:53:29;13.53;74.07
68276;DHT22;55106;51.438;-0.098;2022-07-06T01:55:55;13.50;74.04
68276;DHT22;55106;51.438;-0.098;2022-07-06T01:58:21;13.54;74.08
68276;DHT22;55106;51.438;-0.098;2022-07-06T02:00:47;13.53;73.96
68276;DHT22;55106;51.438;-0.098;2022-07-06T02:03:12;13.49;73.97
68276;DHT22;55106;51.438;-0.098;2022-07-06T02:05:37;13.44;74.58
68276;DHT22;55106;51.438;-0.098;2022-07-06T02:08:03;13.39;74.75
68276;DHT22;55106;51.438;-0.098;2022-07-06T02:10:28;13.35;74.71
68276;DHT22;55106;51.438;-0.098;2022-07-06T02:12:54;13.36;75.08
68276;DHT22;55106;51.438;-0.098;2022-07-06T02:15:19;13.35;74.97
68276;DHT22;55106;51.438;-0.098;2022-07-06T02:17:44;13.29;74.69
68276;DHT22;55106;51.438;-0.098;2022-07-06T02:20:10;13.27;75.14
68276;DHT22;55106;51.438;-0.098;2022-07-06T02:22:36;13.26;75.39
68276;DHT22;55106;51.438;-0.098;2022-07-06T02:25:01;13.20;75.40
68276;DHT22;55106;51.438;-0.098;2022-07-06T02:27:27;13.18;75.15
68276;DHT22;55106;51.438;-0.098;2022-07-06T02:29:52;13.11;75.65
68276;DHT22;55106;51.438;-0.098;2022-07-06T02:32:17;13.12;75.78
68276;DHT22;55106;51.438;-0.098;2022-07-06T02:34:43;13.04;75.80
68276;DHT22;55106;51.438;-0.098;2022-07-06T02:37:08;13.02;76.04
68276;DHT22;55106;51.438;-0.098;2022-07-06T02:39:34;13.01;76.13
68276;DHT22;55106;51.438;-0.098;2022-07-06T02:41:59;12.99;76.66
68276;DHT22;55106;51.438;-0.098;2022-07-06T02:44:25;12.94;76.22
68276;DHT22;55106;51.438;-0.098;2022-07-06T02:46:50;12.92;76.60
68276;DHT22;55106;51.438;-0.098;2022-07-06T02:49:16;12.92;76.76
68276;DHT22;55106;51.438;-0.098;2022-07-06T02:51:41;12.88;76.40
68276;DHT22;55106;51.438;-0.098;2022-07-06T02:54:07;12.89;76.96
68276;DHT22;55106;51.438;-0.098;2022-07-06T02:56:32;12.91;77.13
68276;DHT22;55106;51.438;-0.098;2022-07-06T02:58:57;12.87;76.98
68276;DHT22;55106;51.438;-0.098;2022-07-06T03:01:23;12.89;77.19
68276;DHT22;55106;51.438;-0.098;2022-07-06T03:03:48;12.92;77.03
68276;DHT22;55106;51.438;-0.098;2022-07-06T03:06:14;12.89;76.95
68276;DHT22;55106;51.438;-0.098;2022-07-06T03:08:39;12.95;77.12
68276;DHT22;55106;51.438;-0.098;2022-07-06T03:11:04;12.94;77.17
68276;DHT22;55106;51.438;-0.098;2022-07-06T03:13:30;12.95;77.32
68276;DHT22;55106;51.438;-0.098;2022-07-06T03:15:56;12.94;77.03
68276;DHT22;55106;51.438;-0.098;2022-07-06T03:18:21;12.92;77.23
68276;DHT22;55106;51.438;-0.098;2022-07-06T03:20:47;12.91;77.02
68276;DHT22;55106;51.438;-0.098;2022-07-06T03:23:12;12.91;77.74
68276;DHT22;55106;51.438;-0.098;2022-07-06T03:25:38;12.87;77.65
68276;DHT22;55106;51.438;-0.098;2022-07-06T03:28:03;12.84;77.47
68276;DHT22;55106;51.438;-0.098;2022-07-06T03:30:29;12.85;77.48
68276;DHT22;55106;51.438;-0.098;2022-07-06T03:32:54;12.87;77.64
68276;DHT22;55106;51.438;-0.098;2022-07-06T03:35:20;12.81;77.85
68276;DHT22;55106;51.438;-0.098;2022-07-06T03:37:45;12.80;78.07
68276;DHT22;55106;51.438;-0.098;2022-07-06T03:40:11;12.71;77.88
68276;DHT22;55106;51.438;-0.098;2022-07-06T03:42:37;12.71;78.39
68276;DHT22;55106;51.438;-0.098;2022-07-06T03:45:03;12.69;78.50
68276;DHT22;55106;51.438;-0.098;2022-07-06T03:47:29;12.77;78.08
68276;DHT22;55106;51.438;-0.098;2022-07-06T03:49:55;12.78;78.03
68276;DHT22;55106;51.438;-0.098;2022-07-06T03:52:20;12.89;77.65
68276;DHT22;55106;51.438;-0.098;2022-07-06T03:54:45;12.98;77.35
68276;DHT22;55106;51.438;-0.098;2022-07-06T03:57:11;13.04;77.61
68276;DHT22;55106;51.438;-0.098;2022-07-06T03:59:41;13.09;77.31
68276;DHT22;55106;51.438;-0.098;2022-07-06T04:02:06;13.22;77.33
68276;DHT22;55106;51.438;-0.098;2022-07-06T04:04:33;13.35;76.82
68276;DHT22;55106;51.438;-0.098;2022-07-06T04:06:59;13.46;76.62
68276;DHT22;55106;51.438;-0.098;2022-07-06T04:09:24;13.57;76.30
68276;DHT22;55106;51.438;-0.098;2022-07-06T04:11:50;13.62;76.10
68276;DHT22;55106;51.438;-0.098;2022-07-06T04:14:15;13.74;75.75
68276;DHT22;55106;51.438;-0.098;2022-07-06T04:16:41;13.81;75.63
68276;DHT22;55106;51.438;-0.098;2022-07-06T04:19:06;13.90;75.34
68276;DHT22;55106;51.438;-0.098;2022-07-06T04:21:31;13.97;75.13
68276;DHT22;55106;51.438;-0.098;2022-07-06T04:23:57;14.10;74.48
68276;DHT22;55106;51.438;-0.098;2022-07-06T04:26:22;14.17;74.65
68276;DHT22;55106;51.438;-0.098;2022-07-06T04:28:48;14.22;74.19
68276;DHT22;55106;51.438;-0.098;2022-07-06T04:31:16;14.33;73.87
68276;DHT22;55106;51.438;-0.098;2022-07-06T04:33:42;14.43;73.59
68276;DHT22;55106;51.438;-0.098;2022-07-06T04:36:09;14.49;73.84
68276;DHT22;55106;51.438;-0.098;2022-07-06T04:38:34;14.55;73.47
68276;DHT22;55106;51.438;-0.098;2022-07-06T04:40:59;14.63;73.44
68276;DHT22;55106;51.438;-0.098;2022-07-06T04:43:25;14.70;73.10
68276;DHT22;55106;51.438;-0.098;2022-07-06T04:45:50;14.80;72.81
68276;DHT22;55106;51.438;-0.098;2022-07-06T04:48:16;14.87;72.77
68276;DHT22;55106;51.438;-0.098;2022-07-06T04:50:41;14.93;72.39
68276;DHT22;55106;51.438;-0.098;2022-07-06T04:53:06;14.98;72.57
68276;DHT22;55106;51.438;-0.098;2022-07-06T04:55:32;14.97;72.49
68276;DHT22;55106;51.438;-0.098;2022-07-06T04:57:57;14.98;71.97
68276;DHT22;55106;51.438;-0.098;2022-07-06T05:00:23;15.06;72.50
68276;DHT22;55106;51.438;-0.098;2022-07-06T05:02:48;15.10;71.78
68276;DHT22;55106;51.438;-0.098;2022-07-06T05:05:14;15.12;71.76
68276;DHT22;55106;51.438;-0.098;2022-07-06T05:07:39;15.15;71.63
68276;DHT22;55106;51.438;-0.098;2022-07-06T05:10:08;15.15;71.68
68276;DHT22;55106;51.438;-0.098;2022-07-06T05:12:35;15.11;71.24
68276;DHT22;55106;51.438;-0.098;2022-07-06T05:15:00;15.15;71.73
68276;DHT22;55106;51.438;-0.098;2022-07-06T05:17:26;15.18;71.71
68276;DHT22;55106;51.438;-0.098;2022-07-06T05:19:51;15.21;71.46
68276;DHT22;55106;51.438;-0.098;2022-07-06T05:22:17;15.27;71.28
68276;DHT22;55106;51.438;-0.098;2022-07-06T05:24:42;15.32;71.06
68276;DHT22;55106;51.438;-0.098;2022-07-06T05:27:08;15.36;71.15
68276;DHT22;55106;51.438;-0.098;2022-07-06T05:29:33;15.48;70.79
68276;DHT22;55106;51.438;-0.098;2022-07-06T05:31:58;15.58;70.31
68276;DHT22;55106;51.438;-0.098;2022-07-06T05:34:24;15.63;70.39
68276;DHT22;55106;51.438;-0.098;2022-07-06T05:36:49;15.66;70.09
68276;DHT22;55106;51.438;-0.098;2022-07-06T05:39:15;15.70;70.07
68276;DHT22;55106;51.438;-0.098;2022-07-06T05:41:44;15.85;69.77
68276;DHT22;55106;51.438;-0.098;2022-07-06T05:44:10;15.86;69.49
68276;DHT22;55106;51.438;-0.098;2022-07-06T05:46:35;15.93;69.55
68276;DHT22;55106;51.438;-0.098;2022-07-06T05:49:01;15.87;69.43
68276;DHT22;55106;51.438;-0.098;2022-07-06T05:51:44;15.86;69.49
68276;DHT22;55106;51.438;-0.098;2022-07-06T05:54:10;15.93;69.57
68276;DHT22;55106;51.438;-0.098;2022-07-06T05:56:35;15.96;69.58
68276;DHT22;55106;51.438;-0.098;2022-07-06T05:59:01;16.07;69.45
68276;DHT22;55106;51.438;-0.098;2022-07-06T06:01:26;16.09;69.23
68276;DHT22;55106;51.438;-0.098;2022-07-06T06:03:51;16.42;68.78
68276;DHT22;55106;51.438;-0.098;2022-07-06T06:06:17;16.71;68.14
68276;DHT22;55106;51.438;-0.098;2022-07-06T06:08:42;17.03;66.68
68276;DHT22;55106;51.438;-0.098;2022-07-06T06:11:08;17.28;66.34
68276;DHT22;55106;51.438;-0.098;2022-07-06T06:13:33;17.46;65.70
68276;DHT22;55106;51.438;-0.098;2022-07-06T06:15:59;17.44;65.58
68276;DHT22;55106;51.438;-0.098;2022-07-06T06:18:24;17.40;65.57
68276;DHT22;55106;51.438;-0.098;2022-07-06T06:20:49;17.28;66.74
68276;DHT22;55106;51.438;-0.098;2022-07-06T06:23:15;17.13;66.90
68276;DHT22;55106;51.438;-0.098;2022-07-06T06:25:43;17.06;67.46
68276;DHT22;55106;51.438;-0.098;2022-07-06T06:28:10;16.99;67.60
68276;DHT22;55106;51.438;-0.098;2022-07-06T06:30:36;17.00;68.16
68276;DHT22;55106;51.438;-0.098;2022-07-06T06:35:30;17.26;67.61
68276;DHT22;55106;51.438;-0.098;2022-07-06T06:37:56;17.31;67.22
68276;DHT22;55106;51.438;-0.098;2022-07-06T06:40:21;17.41;66.54
68276;DHT22;55106;51.438;-0.098;2022-07-06T06:42:47;17.51;66.75
68276;DHT22;55106;51.438;-0.098;2022-07-06T06:45:13;17.41;66.54
68276;DHT22;55106;51.438;-0.098;2022-07-06T06:47:38;17.36;66.66
68276;DHT22;55106;51.438;-0.098;2022-07-06T06:50:04;17.44;66.86
68276;DHT22;55106;51.438;-0.098;2022-07-06T06:52:29;17.53;67.32
68276;DHT22;55106;51.438;-0.098;2022-07-06T06:54:55;17.50;66.19
68276;DHT22;55106;51.438;-0.098;2022-07-06T06:57:20;17.57;66.80
68276;DHT22;55106;51.438;-0.098;2022-07-06T06:59:46;17.55;66.52
68276;DHT22;55106;51.438;-0.098;2022-07-06T07:02:11;17.61;66.10
68276;DHT22;55106;51.438;-0.098;2022-07-06T07:04:37;17.50;66.51
68276;DHT22;55106;51.438;-0.098;2022-07-06T07:07:02;17.68;66.25
68276;DHT22;55106;51.438;-0.098;2022-07-06T07:09:28;17.75;65.53
68276;DHT22;55106;51.438;-0.098;2022-07-06T07:11:53;17.91;65.68
68276;DHT22;55106;51.438;-0.098;2022-07-06T07:14:20;18.03;65.76
68276;DHT22;55106;51.438;-0.098;2022-07-06T07:16:45;18.08;64.42
68276;DHT22;55106;51.438;-0.098;2022-07-06T07:19:11;19.09;63.00
68276;DHT22;55106;51.438;-0.098;2022-07-06T07:21:36;19.63;61.67
68276;DHT22;55106;51.438;-0.098;2022-07-06T07:24:02;20.08;59.16
68276;DHT22;55106;51.438;-0.098;2022-07-06T07:26:27;20.61;58.79
68276;DHT22;55106;51.438;-0.098;2022-07-06T07:28:53;21.20;57.58
68276;DHT22;55106;51.438;-0.098;2022-07-06T07:31:18;20.96;58.72
68276;DHT22;55106;51.438;-0.098;2022-07-06T07:33:44;19.98;60.50
68276;DHT22;55106;51.438;-0.098;2022-07-06T07:36:09;20.20;60.89
68276;DHT22;55106;51.438;-0.098;2022-07-06T07:38:34;20.20;61.22
68276;DHT22;55106;51.438;-0.098;2022-07-06T07:41:00;20.11;61.96
68276;DHT22;55106;51.438;-0.098;2022-07-06T07:43:25;20.18;61.49
68276;DHT22;55106;51.438;-0.098;2022-07-06T07:45:51;20.26;62.30
68276;DHT22;55106;51.438;-0.098;2022-07-06T07:48:17;20.15;62.32
68276;DHT22;55106;51.438;-0.098;2022-07-06T07:50:42;20.05;62.44
68276;DHT22;55106;51.438;-0.098;2022-07-06T07:53:08;20.05;63.41
68276;DHT22;55106;51.438;-0.098;2022-07-06T07:55:33;20.07;63.29
68276;DHT22;55106;51.438;-0.098;2022-07-06T07:57:59;20.01;63.82
68276;DHT22;55106;51.438;-0.098;2022-07-06T08:00:24;19.94;64.44
68276;DHT22;55106;51.438;-0.098;2022-07-06T08:02:53;20.05;63.81
68276;DHT22;55106;51.438;-0.098;2022-07-06T08:05:20;19.53;64.64
68276;DHT22;55106;51.438;-0.098;2022-07-06T08:07:45;19.65;65.91
68276;DHT22;55106;51.438;-0.098;2022-07-06T08:10:10;19.50;65.72
68276;DHT22;55106;51.438;-0.098;2022-07-06T08:12:37;19.50;66.55
68276;DHT22;55106;51.438;-0.098;2022-07-06T08:15:04;19.69;65.93
68276;DHT22;55106;51.438;-0.098;2022-07-06T08:17:30;20.07;64.99
68276;DHT22;55106;51.438;-0.098;2022-07-06T08:19:56;20.65;64.49
68276;DHT22;55106;51.438;-0.098;2022-07-06T08:22:21;21.21;63.22
68276;DHT22;55106;51.438;-0.098;2022-07-06T08:24:47;20.73;63.90
68276;DHT22;55106;51.438;-0.098;2022-07-06T08:27:12;21.08;64.07
68276;DHT22;55106;51.438;-0.098;2022-07-06T08:29:38;20.89;64.59
68276;DHT22;55106;51.438;-0.098;2022-07-06T08:32:03;21.20;65.06
68276;DHT22;55106;51.438;-0.098;2022-07-06T08:34:29;20.80;65.33
68276;DHT22;55106;51.438;-0.098;2022-07-06T08:36:54;22.09;63.44
68276;DHT22;55106;51.438;-0.098;2022-07-06T08:39:20;21.95;63.11
68276;DHT22;55106;51.438;-0.098;2022-07-06T08:41:47;22.06;63.25
68276;DHT22;55106;51.438;-0.098;2022-07-06T08:44:15;22.85;61.31
68276;DHT22;55106;51.438;-0.098;2022-07-06T08:46:41;23.39;58.83
68276;DHT22;55106;51.438;-0.098;2022-07-06T08:49:07;23.27;59.60
68276;DHT22;55106;51.438;-0.098;2022-07-06T08:51:35;22.99;60.57
68276;DHT22;55106;51.438;-0.098;2022-07-06T08:54:02;24.00;58.72
68276;DHT22;55106;51.438;-0.098;2022-07-06T08:56:28;23.39;58.77
68276;DHT22;55106;51.438;-0.098;2022-07-06T08:58:54;23.39;59.69
68276;DHT22;55106;51.438;-0.098;2022-07-06T09:01:19;23.43;59.31
68276;DHT22;55106;51.438;-0.098;2022-07-06T09:03:48;23.77;58.84
68276;DHT22;55106;51.438;-0.098;2022-07-06T09:06:16;23.93;58.39
68276;DHT22;55106;51.438;-0.098;2022-07-06T09:08:43;23.58;58.95
68276;DHT22;55106;51.438;-0.098;2022-07-06T09:11:08;22.55;61.84
68276;DHT22;55106;51.438;-0.098;2022-07-06T09:13:34;22.62;61.67
68276;DHT22;55106;51.438;-0.098;2022-07-06T09:16:10;23.18;60.60
68276;DHT22;55106;51.438;-0.098;2022-07-06T09:18:37;23.57;59.25
68276;DHT22;55106;51.438;-0.098;2022-07-06T09:21:03;25.17;55.76
68276;DHT22;55106;51.438;-0.098;2022-07-06T09:23:29;25.52;54.77
68276;DHT22;55106;51.438;-0.098;2022-07-06T09:25:54;25.97;54.79
68276;DHT22;55106;51.438;-0.098;2022-07-06T09:28:20;25.49;54.50
68276;DHT22;55106;51.438;-0.098;2022-07-06T09:30:45;25.31;56.65
68276;DHT22;55106;51.438;-0.098;2022-07-06T09:33:10;25.03;55.04
68276;DHT22;55106;51.438;-0.098;2022-07-06T09:35:38;25.58;54.41
68276;DHT22;55106;51.438;-0.098;2022-07-06T09:38:05;25.58;54.88
68276;DHT22;55106;51.438;-0.098;2022-07-06T09:40:35;24.88;55.79
68276;DHT22;55106;51.438;-0.098;2022-07-06T09:45:36;24.25;57.20
68276;DHT22;55106;51.438;-0.098;2022-07-06T09:48:16;24.67;56.58
68276;DHT22;55106;51.438;-0.098;2022-07-06T09:50:51;25.00;55.93
68276;DHT22;55106;51.438;-0.098;2022-07-06T09:53:17;26.31;53.20
68276;DHT22;55106;51.438;-0.098;2022-07-06T09:55:47;27.16;51.14
68276;DHT22;55106;51.438;-0.098;2022-07-06T09:58:14;27.14;49.71
68276;DHT22;55106;51.438;-0.098;2022-07-06T10:00:40;26.89;51.61
68276;DHT22;55106;51.438;-0.098;2022-07-06T10:03:07;26.18;52.10
68276;DHT22;55106;51.438;-0.098;2022-07-06T10:05:33;26.95;51.21
68276;DHT22;55106;51.438;-0.098;2022-07-06T10:08:00;27.77;49.43
68276;DHT22;55106;51.438;-0.098;2022-07-06T10:10:27;27.37;49.60
68276;DHT22;55106;51.438;-0.098;2022-07-06T10:12:55;28.12;48.81
68276;DHT22;55106;51.438;-0.098;2022-07-06T10:15:25;28.68;47.84
68276;DHT22;55106;51.438;-0.098;2022-07-06T10:17:51;29.35;45.91
68276;DHT22;55106;51.438;-0.098;2022-07-06T10:20:18;27.95;48.11
68276;DHT22;55106;51.438;-0.098;2022-07-06T10:22:46;25.96;52.76
68276;DHT22;55106;51.438;-0.098;2022-07-06T10:25:16;25.97;53.03
68276;DHT22;55106;51.438;-0.098;2022-07-06T10:27:42;26.10;52.88
68276;DHT22;55106;51.438;-0.098;2022-07-06T10:30:09;26.06;52.44
68276;DHT22;55106;51.438;-0.098;2022-07-06T10:32:35;25.87;53.46
68276;DHT22;55106;51.438;-0.098;2022-07-06T10:35:02;25.83;54.30
68276;DHT22;55106;51.438;-0.098;2022-07-06T10:37:28;26.95;51.12
68276;DHT22;55106;51.438;-0.098;2022-07-06T10:39:54;26.98;49.31
68276;DHT22;55106;51.438;-0.098;2022-07-06T10:42:45;26.83;50.47
68276;DHT22;55106;51.438;-0.098;2022-07-06T10:45:19;26.24;51.80
68276;DHT22;55106;51.438;-0.098;2022-07-06T10:53:21;28.19;48.00
68276;DHT22;55106;51.438;-0.098;2022-07-06T10:55:48;28.77;47.45
68276;DHT22;55106;51.438;-0.098;2022-07-06T10:58:15;28.01;47.46
68276;DHT22;55106;51.438;-0.098;2022-07-06T11:00:59;29.05;46.51
68276;DHT22;55106;51.438;-0.098;2022-07-06T11:03:33;26.86;49.76
68276;DHT22;55106;51.438;-0.098;2022-07-06T11:06:14;25.97;52.54
68276;DHT22;55106;51.438;-0.098;2022-07-06T11:16:17;26.79;52.05
68276;DHT22;55106;51.438;-0.098;2022-07-06T11:18:59;26.99;51.19
68276;DHT22;55106;51.438;-0.098;2022-07-06T11:21:36;26.16;51.06
68276;DHT22;55106;51.438;-0.098;2022-07-06T11:24:03;25.79;53.13
68276;DHT22;55106;51.438;-0.098;2022-07-06T11:26:30;25.92;54.52
68276;DHT22;55106;51.438;-0.098;2022-07-06T11:28:58;25.65;53.55
68276;DHT22;55106;51.438;-0.098;2022-07-06T11:31:23;25.66;53.52
68276;DHT22;55106;51.438;-0.098;2022-07-06T11:33:49;26.10;52.47
68276;DHT22;55106;51.438;-0.098;2022-07-06T11:36:17;26.24;51.95
68276;DHT22;55106;51.438;-0.098;2022-07-06T11:38:43;26.52;51.25
68276;DHT22;55106;51.438;-0.098;2022-07-06T11:41:09;26.37;50.35
68276;DHT22;55106;51.438;-0.098;2022-07-06T11:43:37;25.79;52.03
68276;DHT22;55106;51.438;-0.098;2022-07-06T11:46:03;25.35;52.58
68276;DHT22;55106;51.438;-0.098;2022-07-06T11:48:28;25.20;54.22
68276;DHT22;55106;51.438;-0.098;2022-07-06T11:51:00;25.31;54.33
68276;DHT22;55106;51.438;-0.098;2022-07-06T11:53:27;25.22;54.95
68276;DHT22;55106;51.438;-0.098;2022-07-06T11:55:52;24.59;54.83
68276;DHT22;55106;51.438;-0.098;2022-07-06T11:58:23;25.59;54.49
68276;DHT22;55106;51.438;-0.098;2022-07-06T12:03:29;26.95;50.47
68276;DHT22;55106;51.438;-0.098;2022-07-06T12:05:54;26.30;50.56
68276;DHT22;55106;51.438;-0.098;2022-07-06T12:08:20;25.93;52.33
68276;DHT22;55106;51.438;-0.098;2022-07-06T12:10:45;25.18;53.45
68276;DHT22;55106;51.438;-0.098;2022-07-06T12:13:11;24.95;54.61
68276;DHT22;55106;51.438;-0.098;2022-07-06T12:15:36;24.55;55.34
68276;DHT22;55106;51.438;-0.098;2022-07-06T12:18:02;24.29;55.01
68276;DHT22;55106;51.438;-0.098;2022-07-06T12:20:27;24.18;54.73
68276;DHT22;55106;51.438;-0.098;2022-07-06T12:23:05;24.56;54.63
68276;DHT22;55106;51.438;-0.098;2022-07-06T12:25:32;24.35;54.71
68276;DHT22;55106;51.438;-0.098;2022-07-06T12:27:57;24.52;54.43
68276;DHT22;55106;51.438;-0.098;2022-07-06T12:30:23;24.57;55.24
68276;DHT22;55106;51.438;-0.098;2022-07-06T12:33:15;24.84;54.74
68276;DHT22;55106;51.438;-0.098;2022-07-06T12:35:41;25.35;53.84
68276;DHT22;55106;51.438;-0.098;2022-07-06T12:38:07;25.59;53.41
68276;DHT22;55106;51.438;-0.098;2022-07-06T12:40:35;25.39;52.96
68276;DHT22;55106;51.438;-0.098;2022-07-06T12:43:02;25.45;53.45
68276;DHT22;55106;51.438;-0.098;2022-07-06T12:45:28;25.04;53.84
68276;DHT22;55106;51.438;-0.098;2022-07-06T12:50:30;24.15;54.81
68276;DHT22;55106;51.438;-0.098;2022-07-06T12:52:57;24.37;55.04
68276;DHT22;55106;51.438;-0.098;2022-07-06T12:55:29;23.95;55.05
68276;DHT22;55106;51.438;-0.098;2022-07-06T12:57:56;24.15;55.64
68276;DHT22;55106;51.438;-0.098;2022-07-06T13:00:22;24.36;55.38
68276;DHT22;55106;51.438;-0.098;2022-07-06T13:02:49;24.73;54.93
68276;DHT22;55106;51.438;-0.098;2022-07-06T13:05:23;24.22;55.40
68276;DHT22;55106;51.438;-0.098;2022-07-06T13:07:57;23.82;56.29
68276;DHT22;55106;51.438;-0.098;2022-07-06T13:10:23;24.02;55.99
68276;DHT22;55106;51.438;-0.098;2022-07-06T13:12:50;23.78;55.92
68276;DHT22;55106;51.438;-0.098;2022-07-06T13:15:15;24.16;56.60
68276;DHT22;55106;51.438;-0.098;2022-07-06T13:17:42;24.25;55.25
68276;DHT22;55106;51.438;-0.098;2022-07-06T13:20:10;24.35;55.23
68276;DHT22;55106;51.438;-0.098;2022-07-06T13:22:36;24.43;55.13
68276;DHT22;55106;51.438;-0.098;2022-07-06T13:25:02;24.16;55.95
68276;DHT22;55106;51.438;-0.098;2022-07-06T13:27:27;24.32;56.00
68276;DHT22;55106;51.438;-0.098;2022-07-06T13:29:54;24.15;55.99
68276;DHT22;55106;51.438;-0.098;2022-07-06T13:32:19;24.30;55.58
68276;DHT22;55106;51.438;-0.098;2022-07-06T13:34:45;24.49;54.79
68276;DHT22;55106;51.438;-0.098;2022-07-06T13:37:10;24.60;55.31
68276;DHT22;55106;51.438;-0.098;2022-07-06T13:39:36;24.49;54.94
68276;DHT22;55106;51.438;-0.098;2022-07-06T13:42:01;24.76;54.73
68276;DHT22;55106;51.438;-0.098;2022-07-06T13:44:28;24.86;54.61
68276;DHT22;55106;51.438;-0.098;2022-07-06T13:46:54;24.73;55.14
68276;DHT22;55106;51.438;-0.098;2022-07-06T13:49:19;24.63;55.39
68276;DHT22;55106;51.438;-0.098;2022-07-06T13:51:46;24.53;55.38
68276;DHT22;55106;51.438;-0.098;2022-07-06T13:54:11;24.21;55.61
68276;DHT22;55106;51.438;-0.098;2022-07-06T13:56:38;24.35;55.36
68276;DHT22;55106;51.438;-0.098;2022-07-06T13:59:04;24.24;55.82
68276;DHT22;55106;51.438;-0.098;2022-07-06T14:01:30;23.87;56.08
68276;DHT22;55106;51.438;-0.098;2022-07-06T14:03:55;24.30;57.07
68276;DHT22;55106;51.438;-0.098;2022-07-06T14:06:21;24.64;55.48
68276;DHT22;55106;51.438;-0.098;2022-07-06T14:08:47;24.86;54.50
68276;DHT22;55106;51.438;-0.098;2022-07-06T14:11:12;24.91;54.32
68276;DHT22;55106;51.438;-0.098;2022-07-06T14:13:38;24.56;55.12
68276;DHT22;55106;51.438;-0.098;2022-07-06T14:16:04;24.43;56.18
68276;DHT22;55106;51.438;-0.098;2022-07-06T14:18:30;24.15;56.62
68276;DHT22;55106;51.438;-0.098;2022-07-06T14:20:55;24.51;56.62
68276;DHT22;55106;51.438;-0.098;2022-07-06T14:23:21;24.73;56.46
68276;DHT22;55106;51.438;-0.098;2022-07-06T14:25:48;24.63;55.47
68276;DHT22;55106;51.438;-0.098;2022-07-06T14:28:15;24.76;55.54
68276;DHT22;55106;51.438;-0.098;2022-07-06T14:30:42;24.18;56.56
68276;DHT22;55106;51.438;-0.098;2022-07-06T14:33:10;24.00;56.89
68276;DHT22;55106;51.438;-0.098;2022-07-06T14:35:41;24.00;56.91
68276;DHT22;55106;51.438;-0.098;2022-07-06T14:38:07;23.97;56.91
68276;DHT22;55106;51.438;-0.098;2022-07-06T14:40:33;24.32;56.43
68276;DHT22;55106;51.438;-0.098;2022-07-06T14:42:59;24.29;55.69
68276;DHT22;55106;51.438;-0.098;2022-07-06T14:45:24;24.14;56.21
68276;DHT22;55106;51.438;-0.098;2022-07-06T14:47:50;24.62;55.78
68276;DHT22;55106;51.438;-0.098;2022-07-06T14:50:16;24.49;55.51
68276;DHT22;55106;51.438;-0.098;2022-07-06T14:52:41;24.36;55.80
68276;DHT22;55106;51.438;-0.098;2022-07-06T14:55:07;24.16;56.21
68276;DHT22;55106;51.438;-0.098;2022-07-06T14:57:32;24.11;56.58
68276;DHT22;55106;51.438;-0.098;2022-07-06T14:59:58;24.05;56.36
68276;DHT22;55106;51.438;-0.098;2022-07-06T15:02:23;24.22;56.59
68276;DHT22;55106;51.438;-0.098;2022-07-06T15:04:49;24.25;55.66
68276;DHT22;55106;51.438;-0.098;2022-07-06T15:07:14;24.02;55.68
68276;DHT22;55106;51.438;-0.098;2022-07-06T15:09:40;24.14;56.38
68276;DHT22;55106;51.438;-0.098;2022-07-06T15:12:06;24.09;56.26
68276;DHT22;55106;51.438;-0.098;2022-07-06T15:14:32;24.15;56.13
68276;DHT22;55106;51.438;-0.098;2022-07-06T15:16:57;24.22;56.65
68276;DHT22;55106;51.438;-0.098;2022-07-06T15:19:24;24.33;55.87
68276;DHT22;55106;51.438;-0.098;2022-07-06T15:21:50;24.37;55.45
68276;DHT22;55106;51.438;-0.098;2022-07-06T15:24:15;24.15;55.33
68276;DHT22;55106;51.438;-0.098;2022-07-06T15:26:41;24.25;56.01
68276;DHT22;55106;51.438;-0.098;2022-07-06T15:29:06;24.32;55.69
68276;DHT22;55106;51.438;-0.098;2022-07-06T15:31:32;24.49;55.66
68276;DHT22;55106;51.438;-0.098;2022-07-06T15:33:57;24.69;55.08